This is the latest recevied weather packets stored in our database for station/object N7IGG. If no packets are shown the sender has not sent any weather packets the latest 10 day(s).
| Time | Temp. | Humidity | Pressure | Rain* | Wind** | Luminosity | Snow |
|---|---|---|---|---|---|---|---|
| 1777592083 | 21.67° C | 56% | 1016.9 hPa | 0 mm | - | 267 W/m² | - |
| 1777591781 | 20.56° C | 60% | 1016.8 hPa | 0 mm | - | 276 W/m² | - |
| 1777591476 | 20.56° C | 60% | 1017.2 hPa | 0 mm | - | 327 W/m² | - |
| 1777591172 | 20° C | 63% | 1017.2 hPa | 0 mm | - | 344 W/m² | - |
| 1777590866 | 20° C | 62% | 1017.3 hPa | 0 mm | - | 209 W/m² | - |
| 1777590564 | 20.56° C | 60% | 1017.3 hPa | 0 mm | - | 318 W/m² | - |
| 1777590260 | 21.67° C | 57% | 1017.3 hPa | 0 mm | - | 247 W/m² | - |
| 1777589958 | 21.67° C | 60% | 1017.4 hPa | 0 mm | - | 470 W/m² | - |
| 1777589654 | 21.11° C | 63% | 1017.2 hPa | 0 mm | - | 480 W/m² | - |
| 1777589351 | 20° C | 65% | 1017.4 hPa | 0 mm | - | 492 W/m² | - |
| 1777589048 | 18.89° C | 68% | 1017.4 hPa | 0 mm | - | 319 W/m² | - |
| 1777588744 | 18.89° C | 68% | 1017.6 hPa | 0 mm | - | 369 W/m² | - |
| 1777588440 | 18.89° C | 70% | 1017.8 hPa | 0 mm | - | 476 W/m² | - |
| 1777588135 | 18.89° C | 69% | 1017.7 hPa | 0 mm | - | 371 W/m² | - |
| 1777587832 | 18.89° C | 69% | 1017.9 hPa | 0 mm | - | 438 W/m² | - |
| 1777587531 | 18.89° C | 71% | 1017.9 hPa | 0 mm | - | 546 W/m² | - |
| 1777587227 | 17.78° C | 73% | 1018 hPa | 0 mm | - | 519 W/m² | - |
| 1777586923 | 17.22° C | 75% | 1018 hPa | 0 mm | - | 510 W/m² | - |
| 1777586619 | 16.67° C | 75% | 1018.1 hPa | 0 mm | - | 311 W/m² | - |
| 1777586315 | 17.22° C | 74% | 1018.1 hPa | 0 mm | - | 301 W/m² | - |
| 1777586013 | 17.22° C | 75% | 1018.4 hPa | 0 mm | - | 307 W/m² | - |
| 1777585713 | 17.22° C | 74% | 1018.3 hPa | 0 mm | - | 420 W/m² | - |
| 1777585413 | 18.33° C | 73% | 1018.2 hPa | 0 mm | - | 612 W/m² | - |
| 1777585108 | 17.78° C | 73% | 1018.2 hPa | 0 mm | - | 767 W/m² | - |
| 1777584805 | 17.78° C | 72% | 1018.4 hPa | 0 mm | - | 538 W/m² | - |
* Rain latest hour (hover to see other rain measurements)
** Current wind speed in m/s (hover to see current wind gust speed)